Time;durP1;ratioP1;P1;durP2;ratioP2;P2;SDS_P1;SDS_P2;PMS_P1;PMS_P2;Temp;Humidity;BMP_temperature;BMP_pressure;BME280_temperature;BME280_humidity;BME280_pressure;Samples;Min_cycle;Max_cycle;Signal;HPM_P1;HPM_P2
2023/04/11 00:02:25;;;;;;;3.07;0.93;;;12.60;99.90;;;;;;4968081;28;20487;-83
2023/04/11 00:04:53;;;;;;;1.07;1.00;;;12.70;99.90;;;;;;4954658;28;20476;-81
2023/04/11 00:07:32;;;;;;;2.83;0.90;;;12.80;99.80;;;;;;4956377;28;20474;-84
2023/04/11 00:10:06;;;;;;;1.00;0.83;;;12.80;99.90;;;;;;4955810;28;20471;-82
2023/04/11 00:12:46;;;;;;;1.10;1.00;;;12.80;99.90;;;;;;4957422;28;20456;-82
2023/04/11 00:15:15;;;;;;;1.60;0.80;;;12.70;99.90;;;;;;4957444;28;20486;-84
2023/04/11 00:17:46;;;;;;;1.10;0.87;;;12.70;99.90;;;;;;4964714;28;20487;-83
2023/04/11 00:20:26;;;;;;;2.53;0.90;;;12.80;99.90;;;;;;4957753;28;20575;-83
2023/04/11 00:22:53;;;;;;;2.57;0.97;;;12.90;99.40;;;;;;4957841;28;21077;-83
2023/04/11 00:25:20;;;;;;;3.60;0.93;;;12.90;99.10;;;;;;4947013;28;20507;-83
2023/04/11 00:27:46;;;;;;;1.27;1.00;;;12.90;99.10;;;;;;4965261;28;20480;-83
2023/04/11 00:30:14;;;;;;;2.53;0.80;;;12.70;99.10;;;;;;4961019;28;20444;-85
2023/04/11 00:32:49;;;;;;;4.43;1.17;;;12.70;99.20;;;;;;4960182;28;20539;-82
2023/04/11 00:35:19;;;;;;;2.93;1.30;;;12.80;99.10;;;;;;4958663;28;20499;-82
2023/04/11 00:37:55;;;;;;;1.30;0.97;;;12.80;98.80;;;;;;4960517;28;20531;-83
2023/04/11 00:40:27;;;;;;;2.47;1.10;;;12.80;98.60;;;;;;4961776;28;20451;-82
2023/04/11 00:43:03;;;;;;;1.80;1.00;;;12.80;98.70;;;;;;4959514;28;20507;-83
2023/04/11 00:45:35;;;;;;;3.83;1.30;;;12.90;98.70;;;;;;4959149;28;20467;-83
2023/04/11 00:48:15;;;;;;;3.23;1.23;;;12.80;98.70;;;;;;4956319;28;20512;-83
2023/04/11 00:50:56;;;;;;;3.63;1.40;;;12.70;98.80;;;;;;4956786;28;20552;-83
2023/04/11 00:53:31;;;;;;;3.50;1.20;;;12.80;98.90;;;;;;4949121;28;20554;-84
2023/04/11 00:56:01;;;;;;;5.50;1.63;;;12.80;98.80;;;;;;4957495;28;20555;-81
2023/04/11 00:58:46;;;;;;;4.53;1.30;;;12.90;98.20;;;;;;4957969;28;20456;-83
2023/04/11 01:01:41;;;;;;;2.60;1.00;;;12.70;98.20;;;;;;4946323;28;20471;-83
2023/04/11 01:04:30;;;;;;;4.57;1.37;;;12.60;98.80;;;;;;4959348;28;20479;-82
2023/04/11 01:07:10;;;;;;;3.70;1.50;;;12.50;99.00;;;;;;4952306;28;20480;-84
2023/04/11 01:09:46;;;;;;;3.57;1.30;;;12.50;99.10;;;;;;4950979;28;20522;-85
2023/04/11 01:12:16;;;;;;;3.73;1.47;;;12.40;99.20;;;;;;4958349;28;20460;-84
2023/04/11 01:14:51;;;;;;;3.87;1.50;;;12.50;99.30;;;;;;4962255;28;20479;-84
2023/04/11 01:17:20;;;;;;;5.80;1.60;;;12.40;99.10;;;;;;4962454;28;20474;-84
2023/04/11 01:19:57;;;;;;;3.80;1.30;;;12.40;99.10;;;;;;4950908;28;20467;-82
2023/04/11 01:22:32;;;;;;;4.87;2.03;;;12.40;99.10;;;;;;4962727;28;20576;-83
2023/04/11 01:25:16;;;;;;;6.00;4.03;;;12.30;99.00;;;;;;4976402;28;20472;-84
2023/04/11 01:27:44;;;;;;;10.77;2.90;;;12.30;98.80;;;;;;4959053;28;20460;-83
2023/04/11 01:30:15;;;;;;;6.03;2.20;;;12.40;98.90;;;;;;4958546;28;20464;-84
2023/04/11 01:32:49;;;;;;;7.43;2.80;;;12.30;99.00;;;;;;4956388;28;20452;-83
2023/04/11 01:35:24;;;;;;;5.57;1.47;;;12.30;99.00;;;;;;4944521;28;20464;-83
2023/04/11 01:37:55;;;;;;;11.73;2.30;;;12.30;99.10;;;;;;4954991;28;20460;-84
2023/04/11 01:40:37;;;;;;;4.53;2.40;;;12.30;99.10;;;;;;4946066;28;20518;-82
2023/04/11 01:43:17;;;;;;;8.07;1.83;;;12.20;99.00;;;;;;4956763;28;20479;-83
2023/04/11 01:45:51;;;;;;;11.53;2.20;;;12.20;99.20;;;;;;4957666;28;20936;-83
2023/04/11 01:48:35;;;;;;;4.10;1.77;;;12.20;99.20;;;;;;4979451;28;20455;-82
2023/04/11 01:51:09;;;;;;;4.83;1.87;;;12.20;99.20;;;;;;4964682;28;20513;-83
2023/04/11 01:53:36;;;;;;;10.13;2.23;;;12.20;99.30;;;;;;4958445;28;21911;-83
2023/04/11 01:56:04;;;;;;;6.47;2.00;;;12.20;99.20;;;;;;4948253;28;20471;-83
2023/04/11 01:58:30;;;;;;;4.57;1.90;;;12.20;99.10;;;;;;4951913;28;20475;-84
2023/04/11 02:00:57;;;;;;;5.63;1.67;;;12.10;99.20;;;;;;4959282;28;20464;-82
2023/04/11 02:03:24;;;;;;;12.60;2.60;;;12.10;99.20;;;;;;4956289;28;20484;-83
2023/04/11 02:05:51;;;;;;;6.53;1.97;;;12.10;99.10;;;;;;4959156;28;20476;-84
2023/04/11 02:08:18;;;;;;;5.80;2.03;;;12.00;99.10;;;;;;4949243;28;20469;-84
2023/04/11 02:10:45;;;;;;;7.10;2.40;;;12.00;99.10;;;;;;4958688;28;20487;-83
2023/04/11 02:13:12;;;;;;;9.03;2.43;;;12.00;99.10;;;;;;4956759;28;20948;-84
2023/04/11 02:15:38;;;;;;;7.67;2.67;;;11.90;99.00;;;;;;4956773;28;20527;-82
2023/04/11 02:18:08;;;;;;;12.23;2.90;;;11.90;99.00;;;;;;4966728;28;20464;-83
2023/04/11 02:20:36;;;;;;;6.80;1.70;;;11.90;99.00;;;;;;4969341;28;22289;-82
2023/04/11 02:23:04;;;;;;;8.80;3.13;;;11.90;98.90;;;;;;4952988;28;20493;-85
2023/04/11 02:25:31;;;;;;;11.80;2.77;;;12.00;99.00;;;;;;4960087;28;20530;-85
2023/04/11 02:27:59;;;;;;;13.30;2.50;;;11.90;98.70;;;;;;4950932;28;20468;-84
2023/04/11 02:30:26;;;;;;;11.50;2.73;;;11.90;98.80;;;;;;4964365;28;20441;-84
2023/04/11 02:32:52;;;;;;;11.50;3.60;;;11.90;98.80;;;;;;4971131;28;20475;-82
2023/04/11 02:35:19;;;;;;;15.00;3.33;;;11.80;98.60;;;;;;4981993;28;21080;-83
2023/04/11 02:37:46;;;;;;;4.37;2.00;;;11.80;98.60;;;;;;4983168;28;20456;-82
2023/04/11 02:40:12;;;;;;;8.43;2.87;;;11.80;98.50;;;;;;4981119;28;20538;-81
2023/04/11 02:42:41;;;;;;;7.90;2.63;;;11.70;98.40;;;;;;4983421;28;20475;-81
2023/04/11 02:45:09;;;;;;;8.27;2.17;;;11.70;98.40;;;;;;4976263;28;20476;-83
2023/04/11 02:47:36;;;;;;;8.80;2.13;;;11.70;98.40;;;;;;4981425;28;20444;-82
2023/04/11 02:50:03;;;;;;;7.63;2.90;;;11.70;98.50;;;;;;4982509;28;20570;-83
2023/04/11 02:52:32;;;;;;;8.40;2.60;;;11.70;98.80;;;;;;4994331;28;20471;-82
2023/04/11 02:54:59;;;;;;;12.50;2.67;;;11.70;98.50;;;;;;4977811;28;20468;-81
2023/04/11 02:57:28;;;;;;;7.80;2.33;;;11.70;98.50;;;;;;4982162;28;20943;-81
2023/04/11 02:59:55;;;;;;;10.50;2.73;;;11.70;98.60;;;;;;4970602;28;20890;-83
2023/04/11 03:02:22;;;;;;;10.73;3.27;;;11.70;98.50;;;;;;4977635;28;20483;-84
2023/04/11 03:04:50;;;;;;;12.57;3.53;;;11.70;98.50;;;;;;4968536;28;20484;-83
2023/04/11 03:07:17;;;;;;;15.60;3.40;;;11.70;98.40;;;;;;4982130;28;20775;-84
2023/04/11 03:09:43;;;;;;;12.33;2.50;;;11.70;98.50;;;;;;4944903;28;20444;-85
2023/04/11 03:12:10;;;;;;;18.00;2.90;;;11.70;98.60;;;;;;4954736;28;20460;-84
2023/04/11 03:14:37;;;;;;;7.43;2.50;;;11.60;98.50;;;;;;4945678;28;20510;-83
2023/04/11 03:17:04;;;;;;;8.93;2.43;;;11.60;98.60;;;;;;4946198;28;20466;-85
2023/04/11 03:19:31;;;;;;;10.50;2.87;;;11.50;98.60;;;;;;4956751;28;20687;-84
2023/04/11 03:22:00;;;;;;;8.87;2.30;;;11.50;98.70;;;;;;4954918;28;20468;-83
2023/04/11 03:24:27;;;;;;;12.87;2.77;;;11.50;98.80;;;;;;4955530;28;20503;-83
2023/04/11 03:26:54;;;;;;;9.23;2.70;;;11.40;98.70;;;;;;4957022;28;20536;-83
2023/04/11 03:29:21;;;;;;;7.57;2.53;;;11.40;98.70;;;;;;4955737;28;21054;-82
2023/04/11 03:31:48;;;;;;;10.13;2.80;;;11.40;98.60;;;;;;4956083;28;21242;-82
2023/04/11 03:34:16;;;;;;;18.40;3.33;;;11.30;98.50;;;;;;4960494;28;21058;-83
2023/04/11 03:36:43;;;;;;;13.90;2.73;;;11.30;98.30;;;;;;4970557;28;20448;-83
2023/04/11 03:39:10;;;;;;;10.93;2.30;;;11.30;98.20;;;;;;4956516;28;20472;-82
2023/04/11 03:41:40;;;;;;;8.23;4.37;;;11.40;98.30;;;;;;4954206;28;20468;-84
2023/04/11 03:44:07;;;;;;;9.10;2.83;;;11.30;98.20;;;;;;4948543;28;20479;-83
2023/04/11 03:46:34;;;;;;;8.67;3.07;;;11.20;98.00;;;;;;4957850;28;20455;-83
2023/04/11 03:49:07;;;;;;;11.37;2.60;;;11.20;98.00;;;;;;4970377;28;20554;-84
2023/04/11 03:51:34;;;;;;;8.90;2.43;;;11.20;98.10;;;;;;4956408;28;21855;-85
2023/04/11 03:54:01;;;;;;;8.50;2.67;;;11.30;98.10;;;;;;4945404;28;20471;-83
2023/04/11 03:56:31;;;;;;;6.77;2.47;;;11.20;97.80;;;;;;4964326;28;20538;-83
2023/04/11 03:58:58;;;;;;;8.03;2.10;;;11.20;97.90;;;;;;4957434;28;20456;-83
2023/04/11 04:01:25;;;;;;;9.23;2.23;;;11.20;97.90;;;;;;4959317;28;20467;-82
2023/04/11 04:03:52;;;;;;;10.33;2.80;;;11.20;97.70;;;;;;4961666;28;20483;-82
2023/04/11 04:06:20;;;;;;;9.30;2.90;;;11.20;97.70;;;;;;4949982;28;20533;-84
2023/04/11 04:08:47;;;;;;;7.53;2.30;;;11.20;97.80;;;;;;4962026;28;20468;-84
2023/04/11 04:11:14;;;;;;;9.00;2.80;;;11.10;97.70;;;;;;4975547;28;20455;-84
2023/04/11 04:13:41;;;;;;;12.90;2.80;;;11.10;97.80;;;;;;4958447;28;20519;-82
2023/04/11 04:16:08;;;;;;;11.60;2.80;;;11.10;97.80;;;;;;4958090;28;20487;-85
2023/04/11 04:18:35;;;;;;;7.10;2.10;;;11.10;98.10;;;;;;4959017;28;20960;-85
2023/04/11 04:21:02;;;;;;;11.53;2.80;;;11.10;97.90;;;;;;4957706;28;20470;-84
2023/04/11 04:23:31;;;;;;;11.90;2.83;;;11.10;97.80;;;;;;4957170;28;20492;-84
2023/04/11 04:26:00;;;;;;;12.83;3.00;;;11.10;97.80;;;;;;4968189;28;20531;-83
2023/04/11 04:28:28;;;;;;;9.87;2.93;;;11.10;97.80;;;;;;4960109;28;21755;-85
2023/04/11 04:30:56;;;;;;;12.83;3.80;;;11.20;97.90;;;;;;4973215;28;20562;-84
2023/04/11 04:33:26;;;;;;;7.07;2.50;;;11.20;98.20;;;;;;4951014;28;20475;-84
2023/04/11 04:35:56;;;;;;;10.73;2.53;;;11.20;97.90;;;;;;4965006;28;20490;-83
2023/04/11 04:38:27;;;;;;;7.17;2.60;;;11.10;97.90;;;;;;4958600;28;20471;-84
2023/04/11 04:41:32;;;;;;;8.73;3.00;;;11.10;97.80;;;;;;4956708;28;20435;-83
2023/04/11 04:44:09;;;;;;;6.40;2.20;;;11.10;97.90;;;;;;4956919;28;20492;-82
2023/04/11 04:46:38;;;;;;;11.93;3.17;;;11.10;97.80;;;;;;4956396;28;20476;-84
2023/04/11 04:49:17;;;;;;;11.63;3.30;;;11.10;97.70;;;;;;4956371;28;20463;-83
2023/04/11 04:51:50;;;;;;;9.50;2.87;;;11.10;97.80;;;;;;4955075;28;20558;-83
2023/04/11 04:54:24;;;;;;;7.80;2.47;;;11.10;97.80;;;;;;4969652;28;20487;-84
2023/04/11 04:57:10;;;;;;;7.00;2.60;;;11.10;97.80;;;;;;4971380;28;20956;-83
2023/04/11 05:00:05;;;;;;;7.43;3.20;;;11.00;97.80;;;;;;4960958;28;20452;-81
2023/04/11 05:02:41;;;;;;;9.13;2.83;;;11.10;97.70;;;;;;4960010;28;20923;-84
2023/04/11 05:05:15;;;;;;;8.93;2.30;;;11.10;97.70;;;;;;4974994;28;21746;-84
2023/04/11 05:07:47;;;;;;;12.37;2.80;;;11.10;97.50;;;;;;4961291;28;20463;-82
2023/04/11 05:10:23;;;;;;;12.03;3.10;;;11.10;97.60;;;;;;4961855;28;20468;-82
2023/04/11 05:12:53;;;;;;;7.67;2.80;;;11.10;97.70;;;;;;4967825;28;21151;-82
2023/04/11 05:15:32;;;;;;;10.43;3.10;;;11.10;97.70;;;;;;4963659;28;20483;-84
2023/04/11 05:18:08;;;;;;;8.63;3.00;;;11.10;97.70;;;;;;4963795;28;20463;-83
2023/04/11 05:20:35;;;;;;;10.30;2.70;;;11.00;97.70;;;;;;4965651;28;20475;-83
2023/04/11 05:23:02;;;;;;;6.70;2.60;;;11.00;97.70;;;;;;4965870;28;20559;-83
2023/04/11 05:25:35;;;;;;;12.33;3.10;;;11.10;97.70;;;;;;4979837;28;20468;-82
2023/04/11 05:28:07;;;;;;;8.77;3.80;;;11.10;97.70;;;;;;4980444;28;20456;-83
2023/04/11 05:30:40;;;;;;;11.10;4.20;;;11.10;97.70;;;;;;4964928;28;20468;-81
2023/04/11 05:33:11;;;;;;;7.40;2.07;;;11.10;97.60;;;;;;4962470;28;20479;-83
2023/04/11 05:35:58;;;;;;;8.30;3.40;;;11.10;97.60;;;;;;4966643;28;20463;-84
2023/04/11 05:38:32;;;;;;;9.07;2.57;;;11.10;97.50;;;;;;4968415;28;20456;-82
2023/04/11 05:41:05;;;;;;;9.30;2.73;;;11.00;97.60;;;;;;4969160;28;20452;-82
2023/04/11 05:43:32;;;;;;;6.90;2.50;;;11.00;97.70;;;;;;4983931;28;20515;-85
2023/04/11 05:46:07;;;;;;;12.67;2.90;;;11.10;97.80;;;;;;4985801;28;20475;-83
2023/04/11 05:48:37;;;;;;;10.10;2.63;;;11.10;97.70;;;;;;4971882;28;20472;-84
2023/04/11 05:51:05;;;;;;;11.10;2.70;;;11.20;97.70;;;;;;4998733;28;20553;-82
2023/04/11 05:53:38;;;;;;;7.17;2.80;;;11.10;97.60;;;;;;4984678;28;20508;-83
2023/04/11 05:56:11;;;;;;;5.90;2.40;;;11.20;97.60;;;;;;4961325;28;20476;-83
2023/04/11 05:58:42;;;;;;;11.67;2.77;;;11.20;97.50;;;;;;4957255;28;21526;-84
2023/04/11 06:01:17;;;;;;;10.17;3.03;;;11.30;97.50;;;;;;4967384;28;20468;-83
2023/04/11 06:03:48;;;;;;;13.00;5.10;;;11.30;97.40;;;;;;4966406;28;20475;-84
2023/04/11 06:06:15;;;;;;;11.30;3.70;;;11.40;97.20;;;;;;4984736;28;20484;-82
2023/04/11 06:08:44;;;;;;;4.87;2.50;;;11.30;97.10;;;;;;4981548;28;20464;-82
2023/04/11 06:11:16;;;;;;;9.63;3.23;;;11.30;97.20;;;;;;4982932;28;20448;-82
2023/04/11 06:13:49;;;;;;;11.33;2.90;;;11.40;97.10;;;;;;4983797;28;20559;-82
2023/04/11 06:17:01;;;;;;;10.60;2.77;;;11.30;97.00;;;;;;4979838;28;20459;-83
2023/04/11 06:20:00;;;;;;;;;;;;;;;;;;;;;
2023/04/11 06:23:00;;;;;;;18.87;13.03;;;11.20;97.20;;;;;;4955193;28;20456;-84
2023/04/11 06:25:47;;;;;;;8.10;2.60;;;11.30;97.30;;;;;;4960993;28;21255;-83
2023/04/11 06:28:37;;;;;;;7.13;2.83;;;11.70;97.20;;;;;;4970283;28;20547;-84
2023/04/11 06:31:21;;;;;;;10.80;2.93;;;12.30;96.50;;;;;;4954178;28;20463;-82
2023/04/11 06:34:00;;;;;;;12.67;3.30;;;12.30;95.00;;;;;;4970903;28;20524;-83
2023/04/11 06:36:41;;;;;;;11.47;2.90;;;12.80;95.80;;;;;;4947348;28;20855;-82
2023/04/11 06:39:26;;;;;;;6.47;2.50;;;13.60;93.30;;;;;;4960922;28;20546;-83
2023/04/11 06:42:18;;;;;;;6.50;2.63;;;14.10;92.70;;;;;;4956691;28;20488;-85
2023/04/11 06:44:55;;;;;;;4.10;2.00;;;14.00;90.50;;;;;;4956877;28;21022;-83
2023/04/11 06:47:51;;;;;;;11.53;2.63;;;14.00;91.10;;;;;;4958000;28;20443;-84
2023/04/11 06:50:40;;;;;;;6.10;1.90;;;14.80;89.10;;;;;;4958314;28;20526;-82
2023/04/11 06:56:33;;;;;;;8.07;2.50;;;15.10;86.60;;;;;;4954796;28;20968;-84
2023/04/11 06:59:29;;;;;;;8.03;2.07;;;14.30;85.30;;;;;;4957271;28;20785;-82
2023/04/11 07:02:42;;;;;;;4.40;1.93;;;13.40;88.20;;;;;;4971842;28;20434;-84
2023/04/11 07:05:32;;;;;;;11.13;2.90;;;12.80;90.50;;;;;;4966978;28;20852;-83
2023/04/11 07:08:57;;;;;;;7.60;2.83;;;13.20;92.60;;;;;;4958483;28;20456;-82
2023/04/11 07:11:28;;;;;;;6.80;2.80;;;14.90;85.70;;;;;;4957352;28;20462;-82
2023/04/11 07:14:05;;;;;;;8.67;5.13;;;14.90;82.40;;;;;;4965788;28;20448;-83
2023/04/11 07:16:49;;;;;;;6.07;2.47;;;15.10;82.90;;;;;;4959250;28;20906;-84
2023/04/11 07:19:38;;;;;;;7.60;2.47;;;16.70;79.60;;;;;;4944691;28;20448;-83
2023/04/11 07:22:36;;;;;;;4.53;2.40;;;16.60;73.60;;;;;;4947672;28;20514;-83
2023/04/11 07:25:14;;;;;;;9.50;2.90;;;16.80;74.40;;;;;;4955389;28;20506;-83
2023/04/11 07:28:17;;;;;;;6.60;2.20;;;16.20;72.90;;;;;;4953530;28;21053;-82
2023/04/11 07:31:21;;;;;;;5.00;2.33;;;15.70;75.10;;;;;;4903052;29;20429;-84
2023/04/11 07:34:00;;;;;;;7.53;2.50;;;15.40;76.20;;;;;;4913255;29;21163;-83
2023/04/11 07:37:13;;;;;;;5.30;2.00;;;15.00;77.40;;;;;;4891583;29;20453;-84
2023/04/11 07:39:51;;;;;;;3.07;1.90;;;17.80;72.70;;;;;;4900344;29;20470;-83
2023/04/11 07:42:38;;;;;;;5.57;2.57;;;18.50;68.50;;;;;;4930601;29;20469;-83
2023/04/11 07:45:20;;;;;;;8.00;2.07;;;17.50;65.80;;;;;;4909788;29;20557;-84
2023/04/11 07:51:32;;;;;;;;;;;;;;;;;;;;;
2023/04/11 07:54:23;;;;;;;4.17;1.97;;;15.50;72.10;;;;;;4916787;29;20480;-82
2023/04/11 07:57:15;;;;;;;6.50;2.10;;;15.20;71.90;;;;;;4909952;29;20461;-84
2023/04/11 08:07:54;;;;;;;4.37;2.40;;;17.10;66.20;;;;;;4933547;28;20547;-84
2023/04/11 08:15:40;;;;;;;;;;;;;;;;;;;;;
2023/04/11 08:19:17;;;;;;;7.13;2.10;;;16.60;69.10;;;;;;4911019;29;20536;-84
2023/04/11 08:23:06;;;;;;;;;;;;;;;;;;;;;
2023/04/11 08:29:18;;;;;;;4.03;1.83;;;15.40;64.80;;;;;;4917625;29;20453;-81
2023/04/11 08:35:18;;;;;;;6.40;2.13;;;15.00;68.80;;;;;;4926093;29;20627;-82
2023/04/11 08:38:22;;;;;;;3.90;1.80;;;16.70;69.70;;;;;;4911075;29;20521;-84
2023/04/11 08:41:53;;;;;;;4.73;1.90;;;18.30;61.90;;;;;;4863595;29;20468;-83
2023/04/11 08:45:00;;;;;;;;;;;;;;;;;;;;;
2023/04/11 08:48:27;;;;;;;7.03;1.90;;;19.50;56.20;;;;;;4891370;29;20467;-84
2023/04/11 08:51:57;;;;;;;4.73;1.80;;;20.20;55.30;;;;;;4870804;29;20447;-82
2023/04/11 08:55:10;;;;;;;4.80;2.00;;;20.70;52.50;;;;;;4805599;29;20549;-81
2023/04/11 08:58:32;;;;;;;;;;;;;;;;;;;;;
2023/04/11 09:01:55;;;;;;;3.43;1.53;;;18.90;51.30;;;;;;4812111;29;20468;-81
2023/04/11 09:09:42;;;;;;;;;;;;;;;;;;;;;
2023/04/11 09:13:09;;;;;;;;;;;;;;;;;;;;;
2023/04/11 09:16:30;;;;;;;2.60;1.60;;;19.60;51.60;;;;;;4962177;28;20464;-84
2023/04/11 09:20:03;;;;;;;7.70;2.57;;;19.80;52.10;;;;;;4958076;28;20627;-84
2023/04/11 09:23:06;;;;;;;5.60;1.70;;;20.20;50.70;;;;;;4971611;28;21119;-84
2023/04/11 09:29:56;;;;;;;3.60;1.60;;;19.90;50.90;;;;;;4909079;29;20981;-85
2023/04/11 09:33:16;;;;;;;17.07;3.63;;;19.60;50.00;;;;;;4956381;28;20618;-84
2023/04/11 09:39:38;;;;;;;6.60;2.10;;;20.20;49.50;;;;;;4946703;28;20462;-84
2023/04/11 09:43:12;;;;;;;1.90;1.60;;;19.30;49.80;;;;;;4968369;28;20464;-83
2023/04/11 09:46:43;;;;;;;6.50;1.80;;;19.60;50.20;;;;;;4956550;28;20472;-81
2023/04/11 09:50:38;;;;;;;2.90;1.30;;;19.50;48.30;;;;;;4960781;28;20455;-81
2023/04/11 09:53:42;;;;;;;4.07;1.80;;;19.80;48.10;;;;;;4956916;28;20542;-83
2023/04/11 09:57:01;;;;;;;5.23;2.50;;;19.50;49.10;;;;;;4949917;28;20506;-82
2023/04/11 10:00:51;;;;;;;;;;;;;;;;;;;;;
2023/04/11 10:07:39;;;;;;;4.73;1.57;;;18.20;50.30;;;;;;4926015;29;20461;-82
2023/04/11 10:11:19;;;;;;;5.80;1.50;;;19.00;49.80;;;;;;4919382;29;20521;-82
2023/04/11 10:15:06;;;;;;;;;;;;;;;;;;;;;
2023/04/11 10:22:26;;;;;;;5.23;1.70;;;19.40;46.00;;;;;;4786024;29;20451;-82
2023/04/11 10:33:27;;;;;;;4.20;1.70;;;20.90;44.00;;;;;;4896653;29;20447;-82
2023/04/11 10:40:31;;;;;;;5.37;1.87;;;20.80;43.60;;;;;;4877109;29;20471;-83
2023/04/11 10:43:49;;;;;;;3.27;1.70;;;20.10;43.60;;;;;;4873196;29;20468;-83
2023/04/11 10:47:00;;;;;;;5.03;1.90;;;19.70;42.50;;;;;;4899945;29;20463;-81
2023/04/11 10:50:45;;;;;;;5.97;1.70;;;20.10;42.10;;;;;;4832480;29;20455;-83
2023/04/11 10:54:20;;;;;;;4.03;1.77;;;20.30;41.70;;;;;;4825102;29;20512;-82
2023/04/11 10:57:24;;;;;;;;;;;;;;;;;;;;;
2023/04/11 11:00:19;;;;;;;7.13;1.87;;;20.10;42.20;;;;;;4833136;29;21282;-83
2023/04/11 11:03:42;;;;;;;3.40;1.50;;;20.10;42.60;;;;;;4821201;29;20933;-83
2023/04/11 11:10:48;;;;;;;;;;;;;;;;;;;;;
2023/04/11 11:14:08;;;;;;;4.67;1.60;;;20.10;41.00;;;;;;4908091;29;20530;-83
2023/04/11 11:18:03;;;;;;;2.80;1.30;;;19.40;41.20;;;;;;4909163;29;20479;-82
2023/04/11 11:20:58;;;;;;;9.60;2.50;;;19.60;42.20;;;;;;4946319;28;20448;-83
2023/04/11 11:24:31;;;;;;;3.30;1.73;;;20.00;41.90;;;;;;5000076;28;20959;-81
2023/04/11 11:27:19;;;;;;;4.13;2.10;;;20.40;41.50;;;;;;5000964;28;20474;-83
2023/04/11 11:30:11;;;;;;;4.13;1.77;;;20.00;41.60;;;;;;5003196;28;20482;-82
2023/04/11 11:32:55;;;;;;;2.43;1.20;;;20.00;41.10;;;;;;4990923;28;22131;-82
2023/04/11 11:35:44;;;;;;;6.87;3.00;;;20.20;40.00;;;;;;4982737;28;20478;-82
2023/04/11 11:39:07;;;;;;;6.30;1.60;;;20.00;39.80;;;;;;4941951;28;20547;-84
2023/04/11 11:41:52;;;;;;;5.00;1.80;;;20.30;40.00;;;;;;4941257;29;20476;-84
2023/04/11 11:45:16;;;;;;;2.50;1.40;;;20.60;39.20;;;;;;4873402;29;20523;-83
2023/04/11 11:48:26;;;;;;;4.30;1.40;;;20.30;39.50;;;;;;4893474;29;20726;-84
2023/04/11 11:51:17;;;;;;;3.10;1.57;;;20.50;39.90;;;;;;4886329;29;20479;-85
2023/04/11 11:54:17;;;;;;;5.30;2.00;;;20.40;39.10;;;;;;4886886;29;21207;-83
2023/04/11 11:57:31;;;;;;;3.00;1.30;;;20.50;39.10;;;;;;4877167;29;20468;-84
2023/04/11 12:04:23;;;;;;;3.53;1.10;;;20.50;39.40;;;;;;4905228;29;20487;-81
2023/04/11 12:07:21;;;;;;;;;;;;;;;;;;;;;
2023/04/11 12:10:55;;;;;;;;;;;;;;;;;;;;;
2023/04/11 12:14:06;;;;;;;2.60;1.20;;;19.40;40.40;;;;;;4834579;29;20524;-80
2023/04/11 12:17:22;;;;;;;3.03;1.20;;;19.60;40.60;;;;;;4866658;29;20593;-81
2023/04/11 12:20:22;;;;;;;6.10;1.40;;;20.50;39.00;;;;;;4874881;29;20453;-83
2023/04/11 12:23:27;;;;;;;5.00;1.50;;;20.70;38.40;;;;;;4925494;29;20456;-83
2023/04/11 12:26:26;;;;;;;3.43;1.13;;;20.30;39.10;;;;;;4943840;28;20497;-81
2023/04/11 12:29:10;;;;;;;4.73;1.60;;;20.30;38.90;;;;;;4942123;29;20554;-81
2023/04/11 12:32:05;;;;;;;7.20;1.80;;;20.50;39.20;;;;;;4972196;28;20466;-82
2023/04/11 12:35:01;;;;;;;2.20;1.20;;;20.60;38.90;;;;;;4994600;28;20471;-83
2023/04/11 12:38:13;;;;;;;4.50;1.37;;;20.40;38.90;;;;;;5015319;28;20471;-81
2023/04/11 12:41:08;;;;;;;2.50;1.17;;;20.20;38.40;;;;;;5016121;28;20473;-83
2023/04/11 12:44:41;;;;;;;3.57;1.40;;;20.40;37.80;;;;;;4992495;28;20453;-82
2023/04/11 12:47:28;;;;;;;3.07;1.20;;;20.30;37.10;;;;;;4998483;28;20445;-82
2023/04/11 12:50:18;;;;;;;2.80;1.60;;;20.30;38.20;;;;;;4999485;28;20439;-80
2023/04/11 12:53:05;;;;;;;6.63;2.43;;;20.40;38.80;;;;;;5000389;28;20495;-81
2023/04/11 12:56:13;;;;;;;3.90;1.40;;;20.40;39.00;;;;;;4999632;28;20562;-82
2023/04/11 12:59:12;;;;;;;4.00;1.67;;;20.70;39.40;;;;;;4982005;28;20468;-83
2023/04/11 13:01:42;;;;;;;3.63;1.20;;;20.70;39.80;;;;;;4987227;28;20468;-82
2023/04/11 13:04:14;;;;;;;5.33;1.17;;;20.70;39.80;;;;;;4989279;28;20492;-83
2023/04/11 13:07:03;;;;;;;5.23;1.47;;;20.40;39.40;;;;;;4983217;28;21818;-81
2023/04/11 13:09:40;;;;;;;5.03;1.20;;;20.50;38.90;;;;;;4990397;28;20440;-81
2023/04/11 13:12:18;;;;;;;1.83;1.43;;;20.50;38.40;;;;;;4989836;28;20483;-81
2023/04/11 13:15:03;;;;;;;3.80;1.53;;;20.60;37.90;;;;;;4986134;28;20479;-82
2023/04/11 13:17:59;;;;;;;2.60;1.10;;;20.40;37.40;;;;;;4985216;28;21074;-82
2023/04/11 13:21:00;;;;;;;2.80;1.23;;;20.20;38.40;;;;;;4987887;28;20463;-82
2023/04/11 13:23:49;;;;;;;;;;;;;;;;;;;;;
2023/04/11 13:26:29;;;;;;;2.43;1.20;;;20.10;40.30;;;;;;4984877;28;20528;-84
2023/04/11 13:29:38;;;;;;;4.47;1.10;;;20.30;38.80;;;;;;4957640;28;20451;-81
2023/04/11 13:32:29;;;;;;;2.90;1.53;;;20.50;38.10;;;;;;4988879;28;20453;-81
2023/04/11 13:34:59;;;;;;;4.00;1.10;;;20.20;38.30;;;;;;4994767;28;20464;-84
2023/04/11 13:37:54;;;;;;;6.07;1.40;;;19.70;39.50;;;;;;4992548;28;20493;-81
2023/04/11 13:40:34;;;;;;;3.77;1.13;;;19.30;40.40;;;;;;4994996;28;20454;-83
2023/04/11 13:43:22;;;;;;;4.93;1.50;;;18.90;41.10;;;;;;4997938;28;20491;-81
2023/04/11 13:46:06;;;;;;;3.10;1.47;;;18.60;42.00;;;;;;4999946;28;20546;-82
2023/04/11 13:48:46;;;;;;;7.30;1.40;;;18.40;46.90;;;;;;5001548;28;20475;-81
2023/04/11 13:51:51;;;;;;;;;;;;;;;;;;;;;
2023/04/11 13:54:30;;;;;;;5.70;1.27;;;18.30;48.60;;;;;;4993599;28;20459;-81
2023/04/11 13:57:29;;;;;;;3.90;1.33;;;18.70;49.40;;;;;;4996088;28;20477;-82
2023/04/11 14:00:21;;;;;;;2.40;1.37;;;18.90;47.30;;;;;;5011649;28;20470;-80
2023/04/11 14:06:45;;;;;;;2.57;1.30;;;19.10;44.40;;;;;;4960340;28;20494;-81
2023/04/11 14:09:27;;;;;;;4.33;1.37;;;18.90;44.10;;;;;;4991520;28;20455;-82
2023/04/11 14:12:22;;;;;;;3.60;1.00;;;18.90;44.30;;;;;;4976863;28;20951;-82
2023/04/11 14:15:34;;;;;;;3.17;1.60;;;19.10;44.00;;;;;;4991349;28;20487;-83
2023/04/11 14:18:31;;;;;;;3.57;1.60;;;19.10;43.40;;;;;;4973881;28;20457;-82
2023/04/11 14:21:07;;;;;;;5.03;1.47;;;19.20;43.10;;;;;;4988627;28;20545;-83
2023/04/11 14:23:47;;;;;;;2.33;1.27;;;19.10;42.70;;;;;;4988186;28;20456;-84
2023/04/11 14:26:20;;;;;;;5.37;1.27;;;19.10;43.20;;;;;;4984880;28;20487;-83
2023/04/11 14:29:07;;;;;;;2.70;1.20;;;19.10;42.00;;;;;;4989109;28;20460;-82
2023/04/11 14:31:55;;;;;;;3.90;1.73;;;19.20;42.10;;;;;;4982993;28;20512;-82
2023/04/11 14:34:53;;;;;;;2.77;1.40;;;19.30;42.20;;;;;;4977752;28;20554;-85
2023/04/11 14:37:25;;;;;;;4.07;1.53;;;19.40;41.90;;;;;;4976192;28;20534;-83
2023/04/11 14:40:19;;;;;;;4.40;1.40;;;19.50;42.40;;;;;;4972980;28;20451;-82
2023/04/11 14:43:07;;;;;;;2.53;1.87;;;19.40;42.30;;;;;;4970188;28;20584;-82
2023/04/11 14:45:44;;;;;;;3.10;1.57;;;19.40;42.00;;;;;;4973292;28;20601;-82
2023/04/11 14:48:21;;;;;;;5.23;1.80;;;19.30;42.00;;;;;;4972431;28;20469;-81
2023/04/11 14:51:04;;;;;;;3.57;1.80;;;19.10;41.90;;;;;;4980222;28;20456;-82
2023/04/11 14:53:44;;;;;;;3.37;1.93;;;19.00;42.50;;;;;;4979233;28;20467;-83
2023/04/11 14:56:19;;;;;;;2.70;1.47;;;18.90;42.60;;;;;;4982936;28;20477;-84
2023/04/11 14:59:10;;;;;;;5.60;2.23;;;18.80;42.90;;;;;;4982978;28;20534;-82
2023/04/11 15:02:10;;;;;;;8.43;2.20;;;18.70;43.60;;;;;;4983376;28;21977;-82
2023/04/11 15:05:07;;;;;;;7.70;1.83;;;18.60;44.10;;;;;;4993490;28;20532;-84
2023/04/11 15:07:43;;;;;;;4.47;1.97;;;18.50;43.60;;;;;;5000479;28;20490;-83
2023/04/11 15:16:40;;;;;;;4.40;1.50;;;18.80;44.20;;;;;;4995646;28;20450;-83
2023/04/11 15:19:19;;;;;;;5.33;2.27;;;18.40;44.90;;;;;;4990637;28;20459;-84
2023/04/11 15:22:09;;;;;;;5.20;2.30;;;18.20;45.90;;;;;;4977366;28;20563;-83
2023/04/11 15:24:46;;;;;;;4.90;1.70;;;17.80;47.30;;;;;;4963365;28;20557;-83
2023/04/11 15:27:24;;;;;;;3.03;1.90;;;17.40;51.60;;;;;;4970091;28;20478;-83
2023/04/11 15:30:03;;;;;;;6.83;1.80;;;17.20;54.80;;;;;;4975423;28;20937;-83
2023/04/11 15:32:48;;;;;;;3.97;1.30;;;17.30;56.70;;;;;;4972142;28;21079;-82
2023/04/11 15:35:56;;;;;;;3.40;1.90;;;17.20;57.80;;;;;;4974742;28;20554;-80
2023/04/11 15:39:13;;;;;;;2.37;1.73;;;17.30;58.40;;;;;;4969965;28;21021;-82
2023/04/11 15:41:53;;;;;;;3.03;1.83;;;17.50;57.80;;;;;;4983442;28;20440;-82
2023/04/11 15:44:44;;;;;;;2.70;1.40;;;17.60;56.60;;;;;;4978413;28;20488;-82
2023/04/11 15:47:34;;;;;;;;;;;;;;;;;;;;;
2023/04/11 15:50:57;;;;;;;;;;;;;;;;;;;;;
2023/04/11 15:54:19;;;;;;;6.10;1.47;;;17.30;54.40;;;;;;4994942;28;20446;-83
2023/04/11 15:57:08;;;;;;;3.83;2.83;;;17.10;55.60;;;;;;4947808;28;20552;-85
2023/04/11 16:00:26;;;;;;;3.20;1.63;;;17.20;55.70;;;;;;4945408;28;20464;-84
2023/04/11 16:03:43;;;;;;;2.80;1.67;;;17.60;52.90;;;;;;4889114;29;20567;-84